Time;durP1;ratioP1;P1;durP2;ratioP2;P2;SDS_P1;SDS_P2;PMS_P1;PMS_P2;Temp;Humidity;BMP_temperature;BMP_pressure;BME280_temperature;BME280_humidity;BME280_pressure;Samples;Min_cycle;Max_cycle;Signal;HPM_P1;HPM_P2
2022/09/11 00:00:37;;;;;;;5.53;5.03;;;;;;;17.75;100.00;63832.59;5023958;28;20205;-76
2022/09/11 00:03:04;;;;;;;7.03;5.18;;;;;;;17.72;100.00;63827.44;5023648;28;20198;-77
2022/09/11 00:05:31;;;;;;;6.50;5.63;;;;;;;17.73;100.00;63830.53;5025426;28;20197;-77
2022/09/11 00:07:58;;;;;;;6.75;6.13;;;;;;;17.72;100.00;63830.00;5027237;28;20434;-78
2022/09/11 00:10:24;;;;;;;7.05;6.07;;;;;;;17.74;100.00;63831.56;5022004;28;20524;-76
2022/09/11 00:12:52;;;;;;;6.13;5.63;;;;;;;17.73;100.00;63833.63;5023783;28;20518;-78
2022/09/11 00:15:20;;;;;;;6.55;5.95;;;;;;;17.77;100.00;63834.69;5011206;28;20226;-76
2022/09/11 00:17:47;;;;;;;8.10;6.00;;;;;;;17.72;100.00;63830.00;5004411;28;20535;-77
2022/09/11 00:20:14;;;;;;;6.93;6.35;;;;;;;17.76;100.00;63834.16;5019124;28;20216;-77
2022/09/11 00:22:41;;;;;;;9.10;6.47;;;;;;;17.75;100.00;63830.56;5026922;28;20217;-77
2022/09/11 00:25:08;;;;;;;8.07;6.88;;;;;;;17.75;100.00;63835.19;5024773;28;20202;-78
2022/09/11 00:27:35;;;;;;;6.43;5.93;;;;;;;17.74;100.00;63834.16;5020316;28;20218;-77
2022/09/11 00:30:02;;;;;;;5.75;5.07;;;;;;;17.73;100.00;63833.09;5021062;28;20206;-76
2022/09/11 00:32:32;;;;;;;5.57;5.10;;;;;;;17.72;100.00;63829.50;5023492;28;20394;-77
2022/09/11 00:34:59;;;;;;;5.18;4.78;;;;;;;17.71;100.00;63828.97;5026225;28;20214;-76
2022/09/11 00:37:25;;;;;;;5.60;5.20;;;;;;;17.67;100.00;63824.28;5019021;28;20229;-77
2022/09/11 00:39:53;;;;;;;6.47;5.88;;;;;;;17.64;100.00;63826.81;5026306;28;20213;-77
2022/09/11 00:42:20;;;;;;;8.10;6.10;;;;;;;17.63;100.00;63822.69;5023426;28;20246;-77
2022/09/11 00:45:06;;;;;;;6.85;5.75;;;;;;;17.58;100.00;63815.44;5023866;28;20198;-77
2022/09/11 00:47:36;;;;;;;7.60;7.00;;;;;;;17.62;100.00;63824.22;5019328;28;20218;-77
2022/09/11 00:50:12;;;;;;;6.05;5.55;;;;;;;17.59;100.00;63810.78;5024619;28;20194;-77
2022/09/11 00:52:48;;;;;;;6.50;5.90;;;;;;;17.56;100.00;63818.50;5024428;28;20234;-77
2022/09/11 00:55:18;;;;;;;6.32;5.60;;;;;;;17.53;100.00;63809.69;5022621;28;20447;-78
2022/09/11 00:57:49;;;;;;;6.65;5.82;;;;;;;17.45;100.00;63809.09;5023584;28;20280;-77
2022/09/11 01:00:16;;;;;;;6.45;5.95;;;;;;;17.40;100.00;63804.38;5024718;28;20202;-77
2022/09/11 01:02:48;;;;;;;7.30;6.70;;;;;;;17.39;100.00;63800.25;5027097;28;20226;-76
2022/09/11 01:05:16;;;;;;;8.73;7.82;;;;;;;17.42;100.00;63798.75;5027163;28;20260;-77
2022/09/11 01:07:46;;;;;;;9.70;8.48;;;;;;;17.38;100.00;63794.06;5026355;28;20225;-77
2022/09/11 01:10:13;;;;;;;7.00;6.43;;;;;;;17.40;100.00;63796.13;5029936;28;20221;-78
2022/09/11 01:12:47;;;;;;;7.65;6.88;;;;;;;17.31;100.00;63789.84;5025468;28;20246;-77
2022/09/11 01:15:21;;;;;;;6.40;5.95;;;;;;;17.28;100.00;63789.84;5028020;28;20522;-76
2022/09/11 01:17:56;;;;;;;6.43;5.82;;;;;;;17.30;100.00;63784.22;5028708;28;20218;-77
2022/09/11 01:20:37;;;;;;;8.07;6.88;;;;;;;17.28;100.00;63787.28;5021598;28;20198;-77
2022/09/11 01:23:33;;;;;;;7.35;6.72;;;;;;;17.26;100.00;63787.75;5028636;28;20370;-78
2022/09/11 01:26:37;;;;;;;5.95;5.43;;;;;;;17.26;100.00;63782.59;5026523;28;20252;-77
2022/09/11 01:29:12;;;;;;;6.55;6.00;;;;;;;17.20;100.00;63781.00;5021086;28;20387;-78
2022/09/11 01:31:45;;;;;;;7.35;5.93;;;;;;;17.16;100.00;63774.25;5026116;28;20221;-77
2022/09/11 01:34:20;;;;;;;5.88;5.47;;;;;;;17.17;100.00;63773.25;5026090;28;20462;-77
2022/09/11 01:36:53;;;;;;;5.68;5.28;;;;;;;17.14;100.00;63772.16;5027036;28;20217;-78
2022/09/11 01:39:25;;;;;;;9.68;5.45;;;;;;;17.11;100.00;63769.56;5027257;28;20198;-76
2022/09/11 01:42:01;;;;;;;6.13;5.63;;;;;;;17.14;100.00;63772.69;5024062;28;20420;-76
2022/09/11 01:44:34;;;;;;;5.45;5.00;;;;;;;17.15;100.00;63773.72;5028052;28;20190;-77
2022/09/11 01:47:04;;;;;;;5.80;5.40;;;;;;;17.18;100.00;63771.72;5025933;28;20217;-77
2022/09/11 01:49:35;;;;;;;4.53;4.22;;;;;;;17.18;100.00;63778.91;5026227;28;20285;-76
2022/09/11 01:52:08;;;;;;;6.10;4.55;;;;;;;17.22;100.00;63780.50;5027428;28;20218;-76
2022/09/11 01:54:42;;;;;;;5.82;5.38;;;;;;;17.19;100.00;63777.38;5027411;28;20534;-77
2022/09/11 01:57:13;;;;;;;5.30;4.90;;;;;;;17.19;100.00;63775.31;5025820;28;20245;-77
2022/09/11 01:59:47;;;;;;;4.43;4.13;;;;;;;17.22;100.00;63777.94;5025622;28;20194;-78
2022/09/11 02:02:20;;;;;;;5.05;4.55;;;;;;;17.21;100.00;63779.44;5026518;28;20217;-77
2022/09/11 02:04:51;;;;;;;4.70;4.30;;;;;;;17.16;100.00;63779.41;5028056;28;20202;-77
2022/09/11 02:07:22;;;;;;;4.20;4.00;;;;;;;17.00;100.00;63758.13;5023707;28;20289;-76
2022/09/11 02:09:54;;;;;;;4.55;4.25;;;;;;;16.97;100.00;63752.44;5027552;28;20186;-77
2022/09/11 02:12:26;;;;;;;5.57;3.67;;;;;;;16.89;100.00;63746.16;5025736;28;20236;-77
2022/09/11 02:14:55;;;;;;;4.05;3.30;;;;;;;16.84;100.00;63738.88;5025546;28;20236;-77
2022/09/11 02:17:27;;;;;;;3.55;3.28;;;;;;;16.76;100.00;63730.56;5025686;28;20284;-78
2022/09/11 02:19:57;;;;;;;4.30;3.83;;;;;;;16.73;100.00;63724.88;5026559;28;20194;-76
2022/09/11 02:22:24;;;;;;;3.47;3.28;;;;;;;16.65;100.00;63721.19;5023763;28;20545;-77
2022/09/11 02:24:51;;;;;;;3.47;3.20;;;;;;;16.62;100.00;63716.00;5026328;28;20521;-77
2022/09/11 02:27:22;;;;;;;3.20;3.05;;;;;;;16.59;100.00;63718.03;5023955;28;20256;-77
2022/09/11 02:29:49;;;;;;;3.10;3.00;;;;;;;16.47;100.00;63700.41;5025852;28;20256;-77
2022/09/11 02:32:18;;;;;;;3.65;3.40;;;;;;;16.37;100.00;63689.97;5014400;28;20217;-77
2022/09/11 02:34:47;;;;;;;3.70;3.50;;;;;;;16.44;100.00;63696.72;5023842;28;20293;-77
2022/09/11 02:37:28;;;;;;;3.45;3.15;;;;;;;16.35;100.00;63693.03;5025665;28;20530;-77
2022/09/11 02:40:27;;;;;;;3.63;3.33;;;;;;;16.24;100.00;63679.00;5028199;28;20227;-76
2022/09/11 02:43:22;;;;;;;4.43;3.40;;;;;;;16.16;100.00;63670.69;5024125;28;20205;-77
2022/09/11 02:46:00;;;;;;;3.53;3.15;;;;;;;16.13;100.00;63667.59;5006962;28;20226;-77
2022/09/11 02:48:44;;;;;;;3.50;3.25;;;;;;;16.10;100.00;63664.47;5006975;28;20450;-78
2022/09/11 02:51:23;;;;;;;3.40;3.20;;;;;;;16.09;100.00;63661.38;5014278;28;20238;-76
2022/09/11 02:53:58;;;;;;;2.65;2.55;;;;;;;16.06;100.00;63657.72;5023051;28;20256;-77
2022/09/11 02:56:35;;;;;;;3.25;2.95;;;;;;;16.02;100.00;63658.69;5026094;28;20225;-77
2022/09/11 02:59:06;;;;;;;5.75;3.60;;;;;;;16.05;100.00;63657.22;5025510;28;20209;-78
2022/09/11 03:01:50;;;;;;;3.28;2.92;;;;;;;16.01;100.00;63653.03;5023320;28;20231;-77
2022/09/11 03:04:19;;;;;;;3.13;2.92;;;;;;;15.89;100.00;63643.13;5028475;28;20187;-76
2022/09/11 03:06:48;;;;;;;3.25;3.05;;;;;;;15.87;100.00;63637.97;5025753;28;20276;-77
2022/09/11 03:09:15;;;;;;;3.10;2.90;;;;;;;15.73;100.00;63629.06;5025458;28;20273;-77
2022/09/11 03:11:43;;;;;;;3.70;2.97;;;;;;;15.77;100.00;63627.59;5023558;28;20224;-77
2022/09/11 03:14:09;;;;;;;3.28;3.13;;;;;;;15.77;100.00;63630.16;5024398;28;20234;-78
2022/09/11 03:16:36;;;;;;;3.10;2.90;;;;;;;15.71;100.00;63623.91;5024771;28;20229;-78
2022/09/11 03:19:04;;;;;;;5.38;3.20;;;;;;;15.65;100.00;63620.75;5025336;28;20206;-77
2022/09/11 03:21:32;;;;;;;5.30;3.83;;;;;;;15.61;100.00;63611.47;5022434;28;20321;-77
2022/09/11 03:23:59;;;;;;;5.13;3.30;;;;;;;15.53;100.00;63607.75;5026090;28;20198;-77
2022/09/11 03:26:26;;;;;;;3.80;3.60;;;;;;;15.54;100.00;63608.78;5026176;28;20237;-77
2022/09/11 03:28:53;;;;;;;4.03;3.72;;;;;;;15.56;100.00;63601.13;5023727;28;20226;-76
2022/09/11 03:31:20;;;;;;;4.22;3.85;;;;;;;15.57;100.00;63607.31;5012473;28;20223;-76
2022/09/11 03:33:47;;;;;;;3.95;3.75;;;;;;;15.57;100.00;63609.88;5024774;28;20253;-76
2022/09/11 03:36:14;;;;;;;4.38;4.05;;;;;;;15.57;100.00;63609.34;5024218;28;20226;-76
2022/09/11 03:38:44;;;;;;;4.30;4.05;;;;;;;15.55;100.00;63605.22;5023878;28;20201;-76
2022/09/11 03:41:11;;;;;;;4.70;3.75;;;;;;;15.52;100.00;63604.66;5024623;28;20214;-77
2022/09/11 03:43:38;;;;;;;4.63;4.22;;;;;;;15.50;100.00;63596.94;5025793;28;20186;-76
2022/09/11 03:46:05;;;;;;;7.32;4.05;;;;;;;15.47;100.00;63599.47;5026213;28;20222;-76
2022/09/11 03:48:32;;;;;;;4.07;3.78;;;;;;;15.45;100.00;63592.25;5022747;28;20195;-77
2022/09/11 03:50:59;;;;;;;4.80;4.28;;;;;;;15.50;100.00;63602.59;5023920;28;20557;-76
2022/09/11 03:53:26;;;;;;;4.47;4.18;;;;;;;15.51;100.00;63603.13;5024820;28;20269;-76
2022/09/11 03:55:54;;;;;;;4.50;4.28;;;;;;;15.47;100.00;63601.53;5020120;28;20230;-77
2022/09/11 03:58:21;;;;;;;4.72;4.43;;;;;;;15.46;100.00;63595.34;5023615;28;20190;-77
2022/09/11 04:00:48;;;;;;;7.80;4.45;;;;;;;15.43;100.00;63597.38;5026261;28;20230;-77
2022/09/11 04:03:16;;;;;;;4.93;4.35;;;;;;;15.41;100.00;63593.22;5025272;28;20205;-77
2022/09/11 04:05:44;;;;;;;4.53;4.13;;;;;;;15.35;100.00;63586.47;5022018;28;20198;-77
2022/09/11 04:08:12;;;;;;;5.05;4.75;;;;;;;15.36;100.00;63585.44;5027645;28;20392;-77
2022/09/11 04:10:39;;;;;;;4.63;4.32;;;;;;;15.38;100.00;63589.56;5023424;28;20222;-78
2022/09/11 04:13:07;;;;;;;4.72;4.43;;;;;;;15.34;100.00;63585.44;5024205;28;20198;-76
2022/09/11 04:15:34;;;;;;;5.97;5.22;;;;;;;15.35;100.00;63581.84;5024094;28;20222;-77
2022/09/11 04:18:05;;;;;;;5.15;4.75;;;;;;;15.30;100.00;63581.25;5025587;28;20206;-77
2022/09/11 04:20:32;;;;;;;4.95;4.65;;;;;;;15.24;100.00;63578.09;5024809;28;20201;-77
2022/09/11 04:22:58;;;;;;;5.57;5.07;;;;;;;15.29;100.00;63582.78;5023570;28;20194;-78
2022/09/11 04:25:25;;;;;;;5.47;5.07;;;;;;;15.24;100.00;63575.53;5023689;28;20410;-77
2022/09/11 04:27:52;;;;;;;5.50;5.20;;;;;;;15.28;100.00;63576.63;5021855;28;20497;-77
2022/09/11 04:30:21;;;;;;;8.13;5.22;;;;;;;15.29;100.00;63577.66;5025282;28;20194;-77
2022/09/11 04:32:49;;;;;;;4.93;4.63;;;;;;;15.29;100.00;63578.16;5025646;28;20290;-77
2022/09/11 04:35:16;;;;;;;5.60;5.25;;;;;;;15.36;100.00;63587.50;5027901;28;20253;-77
2022/09/11 04:37:42;;;;;;;6.43;5.32;;;;;;;15.42;100.00;63591.72;5027107;28;20261;-77
2022/09/11 04:40:10;;;;;;;5.43;5.07;;;;;;;15.54;100.00;63603.66;5028139;28;20240;-77
2022/09/11 04:42:37;;;;;;;5.43;5.03;;;;;;;15.62;100.00;63609.41;5027920;28;20265;-77
2022/09/11 04:45:05;;;;;;;6.20;4.82;;;;;;;15.69;100.00;63616.69;5029500;28;20217;-76
2022/09/11 04:47:33;;;;;;;4.65;4.25;;;;;;;15.76;100.00;63626.53;5030593;28;20217;-77
2022/09/11 04:50:01;;;;;;;4.68;4.38;;;;;;;15.82;100.00;63630.75;5026067;28;20232;-78
2022/09/11 04:52:27;;;;;;;4.65;4.40;;;;;;;15.96;100.00;63649.91;5028065;28;20230;-78
2022/09/11 04:54:54;;;;;;;4.20;4.00;;;;;;;16.05;100.00;63666.97;5024850;28;20230;-77
2022/09/11 04:57:21;;;;;;;4.60;4.20;;;;;;;16.15;100.00;63667.09;5029917;28;20277;-78
2022/09/11 04:59:49;;;;;;;5.22;4.40;;;;;;;16.25;100.00;63679.53;5023660;28;20217;-77
2022/09/11 05:02:16;;;;;;;4.22;3.92;;;;;;;16.36;100.00;63688.41;5029159;28;20218;-77
2022/09/11 05:04:44;;;;;;;6.05;5.53;;;;;;;16.49;100.00;63704.53;5023699;28;20258;-77
2022/09/11 05:07:12;;;;;;;5.70;5.30;;;;;;;16.63;100.00;63716.53;5009396;28;20257;-77
2022/09/11 05:09:39;;;;;;;5.25;4.85;;;;;;;16.59;100.00;63709.78;5020384;28;20206;-77
2022/09/11 05:12:06;;;;;;;5.53;4.97;;;;;;;16.72;100.00;63731.53;5028760;28;20421;-77
2022/09/11 05:14:34;;;;;;;6.15;5.55;;;;;;;16.83;100.00;63740.44;5023804;28;20244;-76
2022/09/11 05:17:01;;;;;;;6.05;5.55;;;;;;;16.85;100.00;63739.94;5026554;28;20379;-75
2022/09/11 05:19:28;;;;;;;5.93;5.50;;;;;;;16.71;100.00;63725.38;5026489;28;20244;-77
2022/09/11 05:21:56;;;;;;;6.05;5.65;;;;;;;16.88;100.00;63742.53;5026621;28;20218;-76
2022/09/11 05:24:23;;;;;;;7.55;6.43;;;;;;;16.94;100.00;63749.31;5023932;28;20198;-78
2022/09/11 05:26:50;;;;;;;10.50;6.50;;;;;;;17.04;100.00;63761.75;5027154;28;20546;-76
2022/09/11 05:29:18;;;;;;;6.63;6.07;;;;;;;17.20;100.00;63773.28;5026712;28;20248;-77
2022/09/11 05:31:46;;;;;;;7.45;6.75;;;;;;;17.30;100.00;63786.78;5026302;28;20221;-77
2022/09/11 05:34:13;;;;;;;6.88;6.22;;;;;;;17.47;100.00;63803.44;5027547;28;20236;-77
2022/09/11 05:36:40;;;;;;;7.45;6.90;;;;;;;17.40;100.00;63796.66;5026114;28;20264;-78
2022/09/11 05:39:09;;;;;;;7.40;6.75;;;;;;;17.35;100.00;63794.03;5028764;28;20205;-78
2022/09/11 05:41:36;;;;;;;7.35;6.65;;;;;;;17.16;100.00;63772.19;5021564;28;20238;-78
2022/09/11 05:44:03;;;;;;;9.23;6.85;;;;;;;17.36;100.00;63791.97;5026067;28;20369;-77
2022/09/11 05:46:30;;;;;;;9.20;7.63;;;;;;;17.48;100.00;63810.16;5025769;28;20218;-77
2022/09/11 05:48:57;;;;;;;8.55;7.65;;;;;;;17.53;100.00;63805.06;5021787;28;20270;-77
2022/09/11 05:51:24;;;;;;;7.47;6.85;;;;;;;17.58;100.00;63815.44;5014744;28;20229;-77
2022/09/11 05:53:52;;;;;;;8.85;7.88;;;;;;;17.65;100.00;63822.19;5010465;28;20411;-76
2022/09/11 05:56:22;;;;;;;9.48;7.93;;;;;;;17.79;100.00;63837.28;5019396;28;20244;-77
2022/09/11 05:58:51;;;;;;;9.10;8.20;;;;;;;17.78;100.00;63838.84;5017301;28;20273;-77
2022/09/11 06:01:20;;;;;;;7.68;7.07;;;;;;;17.95;100.00;63856.00;5026178;28;20533;-77
2022/09/11 06:03:48;;;;;;;7.85;7.20;;;;;;;17.98;100.00;63859.66;5029499;28;20198;-76
2022/09/11 06:06:16;;;;;;;8.65;7.60;;;;;;;18.20;100.00;63877.44;5032419;28;20224;-77
2022/09/11 06:08:43;;;;;;;9.95;8.18;;;;;;;18.36;100.00;63899.25;5030325;28;20205;-76
2022/09/11 06:11:12;;;;;;;8.32;7.20;;;;;;;18.42;100.00;63900.38;5020791;28;20277;-77
2022/09/11 06:13:42;;;;;;;8.50;7.70;;;;;;;18.62;100.00;63920.69;5024585;28;20186;-77
2022/09/11 06:16:10;;;;;;;8.75;8.00;;;;;;;18.64;100.00;63927.91;5006629;28;20433;-79
2022/09/11 06:18:37;;;;;;;8.43;7.63;;;;;;;18.81;100.00;63945.13;5008644;28;20269;-76
2022/09/11 06:21:06;;;;;;;8.85;8.05;;;;;;;18.71;100.00;63930.06;5021360;28;20534;-75
2022/09/11 06:23:34;;;;;;;9.73;8.75;;;;;;;18.73;100.00;63939.88;5026692;28;20382;-76
2022/09/11 06:26:07;;;;;;;11.95;8.13;;;;;;;18.95;100.00;63957.13;5027959;28;20261;-75
2022/09/11 06:28:35;;;;;;;11.93;7.90;;;;;;;19.07;100.00;63974.81;5024388;28;20391;-76
2022/09/11 06:31:04;;;;;;;12.00;7.88;;;;;;;19.11;100.00;63976.41;5023383;28;20234;-75
2022/09/11 06:33:32;;;;;;;9.88;8.90;;;;;;;18.74;100.00;63937.84;5026412;28;20210;-76
2022/09/11 06:36:00;;;;;;;10.68;9.63;;;;;;;18.48;100.00;63913.84;5020737;28;20245;-76
2022/09/11 06:38:28;;;;;;;9.65;8.63;;;;;;;18.31;100.00;63890.94;5025091;28;20502;-76
2022/09/11 06:40:55;;;;;;;9.82;8.88;;;;;;;18.19;100.00;63878.44;5022622;28;20221;-77
2022/09/11 06:43:22;;;;;;;10.63;9.73;;;;;;;18.23;100.00;63883.13;5022900;28;20230;-76
2022/09/11 06:45:49;;;;;;;10.43;9.32;;;;;;;18.35;100.00;63903.38;5019573;28;20267;-75
2022/09/11 06:48:17;;;;;;;9.70;8.70;;;;;;;18.18;100.00;63883.06;5032131;28;20222;-75
2022/09/11 06:50:44;;;;;;;12.73;9.20;;;;;;;18.30;100.00;63892.47;5030473;28;20198;-76
2022/09/11 06:53:13;;;;;;;9.73;8.00;;;;;;;18.59;100.00;63922.19;5031903;28;20205;-75
2022/09/11 06:55:40;;;;;;;8.43;7.63;;;;;;;18.75;100.00;63933.72;5034588;28;20537;-77
2022/09/11 06:58:07;;;;;;;7.88;7.20;;;;;;;18.50;100.00;63915.91;5031427;28;20229;-76
2022/09/11 07:00:35;;;;;;;8.77;7.38;;;;;;;18.53;100.00;63915.94;5026960;28;20290;-77
2022/09/11 07:03:02;;;;;;;7.30;6.70;;;;;;;18.67;100.00;63933.13;5029732;28;20202;-76
2022/09/11 07:05:30;;;;;;;9.02;7.22;;;;;;;18.68;100.00;63934.69;5032417;28;20197;-75
2022/09/11 07:07:57;;;;;;;7.97;7.20;;;;;;;18.72;100.00;63933.16;5027969;28;21007;-76
2022/09/11 07:10:24;;;;;;;7.93;7.13;;;;;;;18.94;100.00;63956.63;5025368;28;20209;-75
2022/09/11 07:12:53;;;;;;;9.32;7.35;;;;;;;18.91;100.00;63953.50;5022955;28;20257;-75
2022/09/11 07:15:20;;;;;;;7.97;7.20;;;;;;;19.08;95.25;63971.22;5022065;28;20253;-75
2022/09/11 07:17:47;;;;;;;6.90;6.35;;;;;;;19.16;88.26;63979.56;5022653;28;20511;-76
2022/09/11 07:20:14;;;;;;;6.70;6.20;;;;;;;19.34;87.76;64003.53;5004994;28;20231;-75
2022/09/11 07:22:44;;;;;;;7.10;6.40;;;;;;;19.17;86.18;63978.00;5016422;28;20214;-75
2022/09/11 07:25:11;;;;;;;6.95;6.32;;;;;;;19.52;85.37;64019.16;5021853;28;20266;-79
2022/09/11 07:27:38;;;;;;;6.80;6.20;;;;;;;19.61;82.55;64031.16;5017686;28;20273;-77
2022/09/11 07:30:06;;;;;;;6.68;6.18;;;;;;;19.76;82.16;64044.19;5023625;28;20194;-77
2022/09/11 07:32:32;;;;;;;6.75;6.20;;;;;;;20.12;79.32;64081.75;5025642;28;20402;-78
2022/09/11 07:35:01;;;;;;;7.75;7.00;;;;;;;20.00;84.52;64063.56;5022754;28;20447;-76
2022/09/11 07:37:27;;;;;;;7.25;6.68;;;;;;;19.97;83.65;64065.59;5021821;28;20245;-79
2022/09/11 07:39:56;;;;;;;7.05;6.35;;;;;;;19.93;81.80;64058.84;5017335;28;20198;-75
2022/09/11 07:42:22;;;;;;;7.72;6.88;;;;;;;19.65;82.07;64035.31;5021381;28;20281;-74
2022/09/11 07:44:50;;;;;;;7.60;6.97;;;;;;;19.69;83.60;64034.31;5021215;28;20573;-77
2022/09/11 07:47:17;;;;;;;7.55;6.95;;;;;;;19.45;81.35;64009.28;5015860;28;20470;-76
2022/09/11 07:49:47;;;;;;;8.18;7.40;;;;;;;19.76;79.45;64046.28;5024116;28;20198;-77
2022/09/11 07:52:14;;;;;;;6.78;6.28;;;;;;;19.85;76.64;64053.06;5023503;28;20218;-74
2022/09/11 07:54:41;;;;;;;8.13;7.07;;;;;;;19.68;77.86;64032.75;5021630;28;20217;-75
2022/09/11 07:57:10;;;;;;;7.75;7.05;;;;;;;19.80;78.98;64048.38;5022986;28;20224;-74
2022/09/11 07:59:38;;;;;;;6.68;6.25;;;;;;;19.91;75.32;64059.34;5023853;28;20511;-75
2022/09/11 08:02:06;;;;;;;7.63;7.00;;;;;;;19.84;73.50;64049.97;5021404;28;20407;-78
2022/09/11 08:04:33;;;;;;;7.75;7.05;;;;;;;20.25;73.72;64089.66;5020705;28;20265;-77
2022/09/11 08:07:00;;;;;;;7.40;6.75;;;;;;;20.11;74.19;64080.72;5024191;28;20221;-76
2022/09/11 08:09:28;;;;;;;7.38;6.68;;;;;;;20.18;74.04;64087.53;5021926;28;20252;-75
2022/09/11 08:11:57;;;;;;;6.93;6.25;;;;;;;20.14;73.72;64083.34;5023549;28;20225;-76
2022/09/11 08:14:27;;;;;;;7.82;6.57;;;;;;;20.26;72.19;64095.88;5019448;28;20282;-75
2022/09/11 08:16:54;;;;;;;7.20;6.60;;;;;;;20.52;70.39;64123.00;5022138;28;20241;-77
2022/09/11 08:19:23;;;;;;;6.82;6.22;;;;;;;20.47;68.54;64123.50;5014033;28;20338;-77
2022/09/11 08:21:51;;;;;;;8.77;6.63;;;;;;;20.53;71.84;64129.75;5013744;28;20253;-74
2022/09/11 08:24:19;;;;;;;7.85;7.25;;;;;;;20.25;71.09;64094.84;5008348;28;20518;-76
2022/09/11 08:26:46;;;;;;;6.60;6.07;;;;;;;20.30;69.56;64100.03;5023668;28;20216;-75
2022/09/11 08:29:17;;;;;;;8.30;7.35;;;;;;;20.49;71.87;64117.28;5025669;28;20240;-77
2022/09/11 08:31:45;;;;;;;8.55;7.10;;;;;;;20.66;72.68;64135.03;5019295;28;20551;-76
2022/09/11 08:34:12;;;;;;;6.75;6.32;;;;;;;20.65;71.43;64139.19;5020804;28;20202;-74
2022/09/11 08:36:39;;;;;;;6.75;6.18;;;;;;;20.57;68.70;64125.66;5020824;28;20304;-75
2022/09/11 08:39:07;;;;;;;7.07;6.47;;;;;;;20.81;67.30;64153.28;5022432;28;20209;-76
2022/09/11 08:41:39;;;;;;;6.18;5.78;;;;;;;20.94;67.63;64161.69;5015507;28;20249;-79
2022/09/11 08:44:16;;;;;;;7.43;6.78;;;;;;;21.17;69.39;64188.31;5023145;28;20298;-76
2022/09/11 08:46:48;;;;;;;10.02;7.40;;;;;;;21.08;71.93;64178.38;5021825;28;20241;-76
2022/09/11 08:49:21;;;;;;;6.85;6.13;;;;;;;21.03;73.12;64175.75;5019714;28;20274;-75
2022/09/11 08:51:50;;;;;;;9.18;8.38;;;;;;;21.25;73.38;64201.84;5012018;28;20273;-78
2022/09/11 08:54:26;;;;;;;10.25;9.27;;;;;;;21.36;75.53;64208.16;5022728;28;20208;-76
2022/09/11 08:56:57;;;;;;;9.68;8.68;;;;;;;21.42;74.74;64213.88;5022641;28;20269;-78
2022/09/11 08:59:37;;;;;;;7.85;7.15;;;;;;;21.63;74.42;64236.34;5016746;28;20391;-79
2022/09/11 09:02:25;;;;;;;8.73;7.90;;;;;;;21.61;75.32;64236.84;5023233;28;20228;-76
2022/09/11 09:05:16;;;;;;;8.50;7.78;;;;;;;21.47;73.73;64221.69;5020844;28;20206;-76
2022/09/11 09:07:56;;;;;;;7.95;7.15;;;;;;;21.36;74.80;64208.16;5018403;28;20231;-76
2022/09/11 09:10:37;;;;;;;8.90;8.10;;;;;;;21.15;77.29;64190.88;5017696;28;20205;-77
2022/09/11 09:13:26;;;;;;;7.53;6.95;;;;;;;21.17;74.48;64190.38;5021566;28;20203;-81
2022/09/11 09:16:03;;;;;;;7.03;6.53;;;;;;;21.55;71.42;64230.56;5024728;28;20233;-79
2022/09/11 09:18:34;;;;;;;7.45;6.85;;;;;;;21.21;72.46;64195.06;5020385;28;20190;-76
2022/09/11 09:21:06;;;;;;;8.13;7.45;;;;;;;21.48;72.44;64220.69;5017585;28;20226;-76
2022/09/11 09:23:40;;;;;;;7.43;6.82;;;;;;;21.36;71.08;64207.63;5020995;28;20246;-76
2022/09/11 09:26:17;;;;;;;11.10;7.90;;;;;;;21.63;68.06;64241.00;5025854;28;20233;-78
2022/09/11 09:28:46;;;;;;;7.68;6.97;;;;;;;21.68;66.51;64244.16;5027027;28;20194;-77
2022/09/11 09:31:17;;;;;;;7.40;6.80;;;;;;;21.44;68.02;64215.97;5019578;28;20218;-78
2022/09/11 09:33:51;;;;;;;8.45;7.63;;;;;;;21.66;64.64;64241.56;5023355;28;20199;-79
2022/09/11 09:36:21;;;;;;;7.65;7.05;;;;;;;21.66;65.62;64238.97;5026519;28;20244;-75
2022/09/11 09:38:48;;;;;;;7.25;6.60;;;;;;;21.67;66.89;64242.59;5026908;28;20212;-77
2022/09/11 09:41:42;;;;;;;7.18;6.53;;;;;;;21.96;62.80;64265.16;5026745;28;20217;-77
2022/09/11 09:44:18;;;;;;;7.13;6.43;;;;;;;22.13;60.70;64287.56;4986685;28;20237;-79
2022/09/11 09:46:47;;;;;;;6.78;6.25;;;;;;;22.00;61.22;64277.13;5025753;28;20229;-77
2022/09/11 09:49:22;;;;;;;6.90;6.30;;;;;;;21.63;63.11;64238.94;5026338;28;20297;-77
2022/09/11 09:51:50;;;;;;;6.75;6.15;;;;;;;21.52;61.44;64224.34;5026006;28;20292;-75
2022/09/11 09:54:22;;;;;;;7.65;6.95;;;;;;;21.57;62.70;64232.16;5021998;28;20198;-75
2022/09/11 09:56:56;;;;;;;10.85;7.55;;;;;;;21.81;63.58;64254.13;5019375;28;20269;-78
2022/09/11 09:59:30;;;;;;;7.13;6.50;;;;;;;21.87;61.26;64263.00;5019984;28;20445;-75
2022/09/11 10:01:57;;;;;;;7.57;6.97;;;;;;;21.60;62.60;64237.88;5014090;28;20281;-75
2022/09/11 10:04:28;;;;;;;7.15;6.65;;;;;;;21.84;62.00;64262.44;5021337;28;20229;-77
2022/09/11 10:07:07;;;;;;;5.90;5.43;;;;;;;21.78;59.33;64254.09;5014405;28;20217;-75
2022/09/11 10:09:34;;;;;;;7.88;7.18;;;;;;;22.02;60.74;64278.69;5021365;28;20194;-79
2022/09/11 10:12:03;;;;;;;7.65;7.00;;;;;;;22.15;58.35;64292.78;5020850;28;20221;-76
2022/09/11 10:14:40;;;;;;;7.80;6.97;;;;;;;22.34;55.68;64310.03;5025876;28;20194;-77
2022/09/11 10:17:19;;;;;;;5.45;5.05;;;;;;;22.28;55.02;64301.16;5015438;28;20236;-76
2022/09/11 10:19:47;;;;;;;7.13;6.53;;;;;;;22.40;55.55;64321.50;5019205;28;20372;-77
2022/09/11 10:22:24;;;;;;;6.55;5.97;;;;;;;22.56;56.14;64330.47;5028040;28;20218;-75
2022/09/11 10:25:10;;;;;;;6.65;6.15;;;;;;;22.54;55.48;64330.97;5027259;28;20194;-79
2022/09/11 10:27:44;;;;;;;7.72;6.38;;;;;;;22.29;55.88;64302.22;5010086;28;20300;-76
2022/09/11 10:30:30;;;;;;;6.35;5.95;;;;;;;22.66;55.04;64343.50;5014497;28;20210;-78
2022/09/11 10:32:59;;;;;;;6.07;5.68;;;;;;;22.93;52.85;64371.75;5025890;28;20393;-77
2022/09/11 10:35:30;;;;;;;5.40;5.10;;;;;;;23.05;52.49;64386.38;5022796;28;20210;-77
2022/09/11 10:38:24;;;;;;;7.35;6.30;;;;;;;22.93;51.87;64374.34;5020470;28;20228;-78
2022/09/11 10:41:07;;;;;;;5.78;5.38;;;;;;;23.16;52.15;64395.28;5025679;28;20221;-76
2022/09/11 10:43:41;;;;;;;5.80;5.45;;;;;;;23.07;51.42;64388.47;5011991;28;20203;-75
2022/09/11 10:46:24;;;;;;;6.38;5.78;;;;;;;22.93;52.24;64374.34;5023185;28;20257;-76
2022/09/11 10:48:53;;;;;;;6.50;5.90;;;;;;;22.73;52.96;64350.31;5015388;28;20232;-75
2022/09/11 10:51:22;;;;;;;7.38;6.22;;;;;;;22.73;53.04;64355.50;5023864;28;20225;-78
2022/09/11 10:54:03;;;;;;;10.52;6.63;;;;;;;22.99;53.82;64379.59;5025069;28;20260;-77
2022/09/11 10:56:32;;;;;;;7.43;6.78;;;;;;;22.87;54.29;64365.47;5021436;28;20234;-80
2022/09/11 10:59:05;;;;;;;7.68;6.97;;;;;;;23.03;54.04;64381.69;5037478;28;20204;-78
2022/09/11 11:01:32;;;;;;;6.15;5.75;;;;;;;23.19;52.53;64403.63;5023185;28;20218;-78
2022/09/11 11:03:59;;;;;;;6.88;6.18;;;;;;;23.30;52.33;64409.94;5037044;28;20541;-76
2022/09/11 11:06:41;;;;;;;7.07;6.40;;;;;;;23.43;52.56;64425.63;5018657;28;20237;-78
2022/09/11 11:09:21;;;;;;;6.88;6.38;;;;;;;23.65;51.25;64449.16;5024977;28;20202;-78
2022/09/11 11:12:11;;;;;;;6.13;5.60;;;;;;;23.54;51.35;64435.03;5022150;28;20222;-77
2022/09/11 11:15:06;;;;;;;5.97;5.47;;;;;;;23.15;52.91;64396.31;5019784;28;20198;-75
2022/09/11 11:17:42;;;;;;;6.70;6.20;;;;;;;22.73;53.88;64353.44;5022501;28;20236;-75
2022/09/11 11:20:23;;;;;;;6.25;5.65;;;;;;;22.57;56.42;64334.09;5022231;28;20194;-74
2022/09/11 11:23:31;;;;;;;6.88;6.28;;;;;;;22.36;55.45;64317.34;5007875;28;20218;-74
2022/09/11 11:26:13;;;;;;;6.18;5.75;;;;;;;22.35;56.58;64310.56;5019192;28;20265;-75
2022/09/11 11:29:06;;;;;;;6.63;6.13;;;;;;;22.69;56.59;64346.13;5007174;28;20209;-77
2022/09/11 11:31:42;;;;;;;6.13;5.63;;;;;;;22.52;55.96;64328.34;5018840;28;20257;-74
2022/09/11 11:34:25;;;;;;;7.25;6.65;;;;;;;22.78;56.23;64360.72;5025907;28;20492;-75
2022/09/11 11:36:57;;;;;;;6.53;6.05;;;;;;;22.97;57.38;64377.50;5023990;28;20422;-76
2022/09/11 11:39:27;;;;;;;7.05;6.32;;;;;;;23.29;55.27;64406.31;5022089;28;20590;-78
2022/09/11 11:42:06;;;;;;;5.63;5.20;;;;;;;23.22;53.73;64401.03;5013935;28;20230;-74
2022/09/11 11:44:40;;;;;;;6.45;6.05;;;;;;;23.17;54.74;64398.41;5019903;28;20200;-76